»·PEaware :: N91CX KTVL-KVNY

N91CX :: KTVL-KVNY

FLIGHT INFORMATION

Flight Status: Arrived
Operator: Privately registered:
United States
More flights under this callsign
Pilot: Chase C. (10526)
Aircraft: Unknown
(LGEZ)
More flights by this aircraft type
Origin: KTVL Lake Tahoe
United States
Destination: KVNY Van Nuys
United States
More flights between these airports :: More routes between these airports
Route: +
File this flight plan on PilotEdge
Remarks:
Altitude:
(Current/Filed)
13,500ft
Speed:
(Current/Filed)
0kts
Departed: 01-Jan-18 04:25 PM
Arrived: 01-Jan-18 06:09 PM
Distance/Time
Traveled:
291nm/1:44
Distance/Time
To Go:
Arrived

Flight Plot

Page will automatically refresh every two minutes.


Map Options




Map Legend


Flown Route
Filed Route
Departure Airport
Arrival Airport
Navaid (VOR, NDB)
Fix

Horizontal Profiles

Position Reports

Time Latitude Longitude Heading Altitude Ground
Speed
01-Jan-18 16:30 38.799312 -119.973445 165 10936ft 124kts
01-Jan-18 16:31 38.766970 -119.960977 165 11887ft 120kts
01-Jan-18 16:32 38.736126 -119.948818 165 12835ft 113kts
01-Jan-18 16:33 38.707622 -119.936885 165 13494ft 124kts
01-Jan-18 16:34 38.671078 -119.921921 165 13480ft 147kts
01-Jan-18 16:35 38.630926 -119.907326 167 13480ft 153kts
01-Jan-18 16:36 38.589602 -119.893266 167 13481ft 154kts
01-Jan-18 16:37 38.551909 -119.880476 167 13573ft 152kts
01-Jan-18 16:38 38.510710 -119.866468 167 13572ft 154kts
01-Jan-18 16:39 38.469510 -119.852497 167 13572ft 154kts
01-Jan-18 16:40 38.427958 -119.838449 167 13572ft 155kts
01-Jan-18 16:41 38.386529 -119.824478 167 13572ft 154kts
01-Jan-18 16:42 38.345087 -119.810468 167 13572ft 154kts
01-Jan-18 16:43 38.303525 -119.796423 167 13572ft 155kts
01-Jan-18 16:44 38.262059 -119.782423 167 13572ft 155kts
01-Jan-18 16:45 38.220484 -119.768424 167 13571ft 155kts
01-Jan-18 16:46 38.179027 -119.754483 167 13572ft 155kts
01-Jan-18 16:47 38.137469 -119.740528 167 13572ft 155kts
01-Jan-18 16:48 38.096131 -119.726663 167 13574ft 155kts
01-Jan-18 16:49 38.054490 -119.712715 167 13562ft 155kts
01-Jan-18 16:50 38.012683 -119.698725 167 13537ft 156kts
01-Jan-18 16:51 37.970727 -119.684704 167 13516ft 156kts
01-Jan-18 16:52 37.928792 -119.670704 167 13499ft 156kts
01-Jan-18 16:53 37.886961 -119.656756 167 13502ft 155kts
01-Jan-18 16:54 37.845459 -119.642942 167 13512ft 155kts
01-Jan-18 16:55 37.803950 -119.629132 167 13522ft 155kts
01-Jan-18 16:56 37.762397 -119.615326 167 13531ft 155kts
01-Jan-18 16:57 37.720894 -119.601553 167 13540ft 155kts
01-Jan-18 16:58 37.677105 -119.587045 167 13550ft 169kts
01-Jan-18 16:59 37.630815 -119.571714 167 13558ft 174kts
01-Jan-18 17:00 37.583831 -119.556176 167 13560ft 175kts
01-Jan-18 17:01 37.536434 -119.540524 167 13530ft 176kts
01-Jan-18 17:02 37.489052 -119.524900 167 13494ft 176kts
01-Jan-18 17:03 37.442181 -119.509464 167 13457ft 176kts
01-Jan-18 17:04 37.394858 -119.493897 167 13459ft 175kts
01-Jan-18 17:05 37.347756 -119.478427 167 13468ft 175kts
01-Jan-18 17:06 37.300729 -119.462996 167 13478ft 175kts
01-Jan-18 17:07 37.254107 -119.447744 166 13527ft 175kts
01-Jan-18 17:08 37.206998 -119.432324 166 13511ft 175kts
01-Jan-18 17:09 37.159888 -119.416914 166 13498ft 175kts
01-Jan-18 17:10 37.112709 -119.401513 166 13481ft 175kts
01-Jan-18 17:11 37.065727 -119.386182 166 13480ft 175kts
01-Jan-18 17:12 37.018654 -119.370854 167 13481ft 175kts
01-Jan-18 17:13 36.971180 -119.355420 167 13481ft 176kts
01-Jan-18 17:14 36.926016 -119.340772 168 13480ft 177kts
01-Jan-18 17:15 36.878317 -119.325313 168 13480ft 177kts
01-Jan-18 17:16 36.830578 -119.309852 168 13480ft 177kts
01-Jan-18 17:17 36.782772 -119.294387 168 13481ft 177kts
01-Jan-18 17:18 36.735460 -119.279348 168 13483ft 177kts
01-Jan-18 17:19 36.687943 -119.264398 168 13486ft 177kts
01-Jan-18 17:20 36.639819 -119.253650 177 13489ft 176kts
01-Jan-18 17:21 36.590961 -119.248198 177 13489ft 176kts
01-Jan-18 17:22 36.542344 -119.242750 176 13489ft 176kts
01-Jan-18 17:23 36.494702 -119.226783 167 13489ft 178kts
01-Jan-18 17:24 36.446994 -119.210866 167 13489ft 178kts
01-Jan-18 17:25 36.399934 -119.195252 167 13489ft 178kts
01-Jan-18 17:26 36.352078 -119.179409 167 13489ft 178kts
01-Jan-18 17:27 36.304370 -119.163631 168 13489ft 177kts
01-Jan-18 17:28 36.256725 -119.147917 167 13489ft 178kts
01-Jan-18 17:29 36.209105 -119.132215 167 13489ft 178kts
01-Jan-18 17:30 36.161344 -119.116484 167 13489ft 178kts
01-Jan-18 17:31 36.113487 -119.100733 167 13489ft 178kts
01-Jan-18 17:32 36.065702 -119.085039 167 13489ft 178kts
01-Jan-18 17:33 36.018102 -119.069418 167 13489ft 178kts
01-Jan-18 17:34 35.970326 -119.053760 167 13489ft 178kts
01-Jan-18 17:35 35.922562 -119.038126 167 13489ft 178kts
01-Jan-18 17:36 35.874781 -119.022545 167 13490ft 178kts
01-Jan-18 17:37 35.827041 -119.006937 167 13489ft 178kts
01-Jan-18 17:38 35.779284 -118.991356 167 13486ft 178kts
01-Jan-18 17:39 35.731420 -118.975767 167 13482ft 178kts
01-Jan-18 17:40 35.684472 -118.960497 167 13478ft 178kts
01-Jan-18 17:41 35.638715 -118.945632 167 13476ft 179kts
01-Jan-18 17:42 35.594557 -118.931303 167 13474ft 179kts
01-Jan-18 17:43 35.553325 -118.917937 167 12969ft 172kts
01-Jan-18 17:44 35.513698 -118.905123 166 12235ft 169kts
01-Jan-18 17:45 35.473741 -118.892180 166 11490ft 168kts
01-Jan-18 17:46 35.438127 -118.880673 166 10827ft 169kts
01-Jan-18 17:47 35.402680 -118.869304 166 10188ft 175kts
01-Jan-18 17:48 35.366289 -118.857558 166 9551ft 180kts
01-Jan-18 17:49 35.332766 -118.846744 166 9494ft 184kts
01-Jan-18 17:50 35.299385 -118.835983 166 9492ft 186kts
01-Jan-18 17:51 35.265749 -118.825159 166 9492ft 186kts
01-Jan-18 17:52 35.230073 -118.813813 166 9492ft 186kts
01-Jan-18 17:53 35.190623 -118.801118 166 9487ft 186kts
01-Jan-18 17:54 35.140355 -118.784980 166 9416ft 188kts
01-Jan-18 17:55 35.092299 -118.769580 166 9351ft 188kts
01-Jan-18 17:56 35.041855 -118.753427 165 9291ft 187kts
01-Jan-18 17:57 34.991091 -118.737209 165 9010ft 193kts
01-Jan-18 17:58 34.938763 -118.720505 165 8470ft 195kts
01-Jan-18 17:59 34.886372 -118.703799 165 7927ft 195kts
01-Jan-18 18:00 34.834141 -118.687159 165 7383ft 194kts
01-Jan-18 18:01 34.781880 -118.670541 164 6839ft 195kts
01-Jan-18 18:02 34.730017 -118.654073 164 6459ft 191kts
01-Jan-18 18:03 34.678799 -118.637807 164 6119ft 192kts
01-Jan-18 18:04 34.635619 -118.624169 165 5829ft 192kts
01-Jan-18 18:05 34.575227 -118.605048 165 5424ft 192kts
01-Jan-18 18:06 34.523501 -118.588667 165 5080ft 192kts
01-Jan-18 18:07 34.480994 -118.575253 165 4796ft 191kts
01-Jan-18 18:08 34.421883 -118.556627 163 4394ft 187kts
01-Jan-18 18:09 34.382828 -118.544325 164 4125ft 187kts
01-Jan-18 18:10 34.337952 -118.516797 147 3725ft 183kts
01-Jan-18 18:11 34.295552 -118.498641 171 2621ft 131kts
01-Jan-18 18:12 34.261172 -118.495166 175 1880ft 120kts
01-Jan-18 18:13 34.233035 -118.492554 174 1156ft 84kts
01-Jan-18 18:14 34.212324 -118.490587 175 803ft 49kts
01-Jan-18 18:15 34.205588 -118.491114 174 803ft 16kts
01-Jan-18 18:16 34.202367 -118.491316 83 803ft 0kts
01-Jan-18 18:17 34.202368 -118.491298 83 802ft 0kts
01-Jan-18 18:18 34.202368 -118.491298 83 802ft 0kts

Navigation Log

Ident Type
1. KTVL Airport
2. KVNY Airport